sensor_id;sensor_type;location;lat;lon;timestamp;temperature;humidity
16700;DHT22;8466;52.286;21.124;2022-10-31T00:01:33;7.30;99.90
16700;DHT22;8466;52.286;21.124;2022-10-31T00:04:04;7.30;99.90
16700;DHT22;8466;52.286;21.124;2022-10-31T00:06:33;7.30;99.90
16700;DHT22;8466;52.286;21.124;2022-10-31T00:09:04;7.30;99.90
16700;DHT22;8466;52.286;21.124;2022-10-31T00:11:33;7.20;99.90
16700;DHT22;8466;52.286;21.124;2022-10-31T00:14:02;7.20;99.90
16700;DHT22;8466;52.286;21.124;2022-10-31T00:16:30;7.20;99.90
16700;DHT22;8466;52.286;21.124;2022-10-31T00:19:01;7.10;99.90
16700;DHT22;8466;52.286;21.124;2022-10-31T00:21:32;7.10;99.90
16700;DHT22;8466;52.286;21.124;2022-10-31T00:24:01;7.10;99.90
16700;DHT22;8466;52.286;21.124;2022-10-31T00:26:30;7.10;99.90
16700;DHT22;8466;52.286;21.124;2022-10-31T00:28:59;7.10;99.90
16700;DHT22;8466;52.286;21.124;2022-10-31T00:31:28;7.00;99.90
16700;DHT22;8466;52.286;21.124;2022-10-31T00:33:57;7.00;99.90
16700;DHT22;8466;52.286;21.124;2022-10-31T00:36:26;7.00;99.90
16700;DHT22;8466;52.286;21.124;2022-10-31T00:38:58;6.90;99.90
16700;DHT22;8466;52.286;21.124;2022-10-31T00:41:27;6.90;99.90
16700;DHT22;8466;52.286;21.124;2022-10-31T00:43:56;6.80;99.90
16700;DHT22;8466;52.286;21.124;2022-10-31T00:46:25;6.80;99.90
16700;DHT22;8466;52.286;21.124;2022-10-31T00:48:54;6.80;99.90
16700;DHT22;8466;52.286;21.124;2022-10-31T00:51:22;6.80;99.90
16700;DHT22;8466;52.286;21.124;2022-10-31T00:53:51;6.80;99.90
16700;DHT22;8466;52.286;21.124;2022-10-31T00:56:21;6.80;99.90
16700;DHT22;8466;52.286;21.124;2022-10-31T00:58:49;6.80;99.90
16700;DHT22;8466;52.286;21.124;2022-10-31T01:01:18;6.70;99.90
16700;DHT22;8466;52.286;21.124;2022-10-31T01:03:47;6.70;99.90
16700;DHT22;8466;52.286;21.124;2022-10-31T01:06:16;6.70;99.90
16700;DHT22;8466;52.286;21.124;2022-10-31T01:08:47;6.70;99.90
16700;DHT22;8466;52.286;21.124;2022-10-31T01:11:17;6.60;99.90
16700;DHT22;8466;52.286;21.124;2022-10-31T01:13:50;6.60;99.90
16700;DHT22;8466;52.286;21.124;2022-10-31T01:16:20;6.60;99.90
16700;DHT22;8466;52.286;21.124;2022-10-31T01:18:49;6.60;99.90
16700;DHT22;8466;52.286;21.124;2022-10-31T01:21:20;6.60;99.90
16700;DHT22;8466;52.286;21.124;2022-10-31T01:23:49;6.60;99.90
16700;DHT22;8466;52.286;21.124;2022-10-31T01:26:20;6.50;99.90
16700;DHT22;8466;52.286;21.124;2022-10-31T01:28:52;6.50;99.90
16700;DHT22;8466;52.286;21.124;2022-10-31T01:31:23;6.50;99.90
16700;DHT22;8466;52.286;21.124;2022-10-31T01:33:52;6.50;99.90
16700;DHT22;8466;52.286;21.124;2022-10-31T01:36:23;6.40;99.90
16700;DHT22;8466;52.286;21.124;2022-10-31T01:38:53;6.50;99.90
16700;DHT22;8466;52.286;21.124;2022-10-31T01:41:26;6.50;99.90
16700;DHT22;8466;52.286;21.124;2022-10-31T01:43:57;6.40;99.90
16700;DHT22;8466;52.286;21.124;2022-10-31T01:46:32;6.40;99.90
16700;DHT22;8466;52.286;21.124;2022-10-31T01:49:05;6.40;99.90
16700;DHT22;8466;52.286;21.124;2022-10-31T01:51:39;6.40;99.90
16700;DHT22;8466;52.286;21.124;2022-10-31T01:54:13;6.50;99.90
16700;DHT22;8466;52.286;21.124;2022-10-31T01:56:44;6.60;99.90
16700;DHT22;8466;52.286;21.124;2022-10-31T01:59:19;6.60;99.90
16700;DHT22;8466;52.286;21.124;2022-10-31T02:01:50;6.60;99.90
16700;DHT22;8466;52.286;21.124;2022-10-31T02:04:20;6.50;99.90
16700;DHT22;8466;52.286;21.124;2022-10-31T02:06:55;6.50;99.90
16700;DHT22;8466;52.286;21.124;2022-10-31T02:09:25;6.50;99.90
16700;DHT22;8466;52.286;21.124;2022-10-31T02:11:57;6.50;99.90
16700;DHT22;8466;52.286;21.124;2022-10-31T02:14:29;6.40;99.90
16700;DHT22;8466;52.286;21.124;2022-10-31T02:16:58;6.40;99.90
16700;DHT22;8466;52.286;21.124;2022-10-31T02:19:32;6.40;99.90
16700;DHT22;8466;52.286;21.124;2022-10-31T02:22:11;6.40;99.90
16700;DHT22;8466;52.286;21.124;2022-10-31T02:25:11;6.40;99.90
16700;DHT22;8466;52.286;21.124;2022-10-31T02:27:56;6.40;99.90
16700;DHT22;8466;52.286;21.124;2022-10-31T02:30:35;6.30;99.90
16700;DHT22;8466;52.286;21.124;2022-10-31T02:33:18;6.30;99.90
16700;DHT22;8466;52.286;21.124;2022-10-31T02:35:59;6.30;99.90
16700;DHT22;8466;52.286;21.124;2022-10-31T02:38:42;6.30;99.90
16700;DHT22;8466;52.286;21.124;2022-10-31T02:41:37;6.30;99.90
16700;DHT22;8466;52.286;21.124;2022-10-31T02:44:13;6.30;99.90
16700;DHT22;8466;52.286;21.124;2022-10-31T02:46:47;6.30;99.90
16700;DHT22;8466;52.286;21.124;2022-10-31T02:49:23;6.30;99.90
16700;DHT22;8466;52.286;21.124;2022-10-31T02:51:54;6.30;99.90
16700;DHT22;8466;52.286;21.124;2022-10-31T02:54:24;6.20;99.90
16700;DHT22;8466;52.286;21.124;2022-10-31T02:56:58;6.30;99.90
16700;DHT22;8466;52.286;21.124;2022-10-31T02:59:29;6.20;99.90
16700;DHT22;8466;52.286;21.124;2022-10-31T03:02:33;6.20;99.90
16700;DHT22;8466;52.286;21.124;2022-10-31T03:05:29;6.20;99.90
16700;DHT22;8466;52.286;21.124;2022-10-31T03:08:07;6.20;99.90
16700;DHT22;8466;52.286;21.124;2022-10-31T03:10:42;6.20;99.90
16700;DHT22;8466;52.286;21.124;2022-10-31T03:13:18;6.20;99.90
16700;DHT22;8466;52.286;21.124;2022-10-31T03:15:59;6.20;99.90
16700;DHT22;8466;52.286;21.124;2022-10-31T03:18:34;6.20;99.90
16700;DHT22;8466;52.286;21.124;2022-10-31T03:21:11;6.10;99.90
16700;DHT22;8466;52.286;21.124;2022-10-31T03:23:44;6.10;99.90
16700;DHT22;8466;52.286;21.124;2022-10-31T03:26:15;6.10;99.90
16700;DHT22;8466;52.286;21.124;2022-10-31T03:28:48;6.10;99.90
16700;DHT22;8466;52.286;21.124;2022-10-31T03:31:23;6.10;99.90
16700;DHT22;8466;52.286;21.124;2022-10-31T03:33:54;6.00;99.90
16700;DHT22;8466;52.286;21.124;2022-10-31T03:36:27;6.00;99.90
16700;DHT22;8466;52.286;21.124;2022-10-31T03:38:57;6.00;99.90
16700;DHT22;8466;52.286;21.124;2022-10-31T03:41:31;6.00;99.90
16700;DHT22;8466;52.286;21.124;2022-10-31T03:44:04;6.00;99.90
16700;DHT22;8466;52.286;21.124;2022-10-31T03:46:35;6.00;99.90
16700;DHT22;8466;52.286;21.124;2022-10-31T03:49:04;5.90;99.90
16700;DHT22;8466;52.286;21.124;2022-10-31T03:51:39;5.90;99.90
16700;DHT22;8466;52.286;21.124;2022-10-31T03:54:16;5.90;99.90
16700;DHT22;8466;52.286;21.124;2022-10-31T03:56:51;5.90;99.90
16700;DHT22;8466;52.286;21.124;2022-10-31T03:59:26;5.80;99.90
16700;DHT22;8466;52.286;21.124;2022-10-31T04:02:00;5.80;99.90
16700;DHT22;8466;52.286;21.124;2022-10-31T04:04:31;5.80;99.90
16700;DHT22;8466;52.286;21.124;2022-10-31T04:07:02;5.80;99.90
16700;DHT22;8466;52.286;21.124;2022-10-31T04:09:33;5.80;99.90
16700;DHT22;8466;52.286;21.124;2022-10-31T04:12:04;5.70;99.90
16700;DHT22;8466;52.286;21.124;2022-10-31T04:14:37;5.70;99.90
16700;DHT22;8466;52.286;21.124;2022-10-31T04:17:10;5.60;99.90
16700;DHT22;8466;52.286;21.124;2022-10-31T04:19:40;5.60;99.90
16700;DHT22;8466;52.286;21.124;2022-10-31T04:22:11;5.60;99.90
16700;DHT22;8466;52.286;21.124;2022-10-31T04:24:40;5.70;99.90
16700;DHT22;8466;52.286;21.124;2022-10-31T04:27:09;5.60;99.90
16700;DHT22;8466;52.286;21.124;2022-10-31T04:29:37;5.60;99.90
16700;DHT22;8466;52.286;21.124;2022-10-31T04:32:06;5.60;99.90
16700;DHT22;8466;52.286;21.124;2022-10-31T04:34:35;5.60;99.90
16700;DHT22;8466;52.286;21.124;2022-10-31T04:37:03;5.60;99.90
16700;DHT22;8466;52.286;21.124;2022-10-31T04:39:33;5.60;99.90
16700;DHT22;8466;52.286;21.124;2022-10-31T04:42:02;5.60;99.90
16700;DHT22;8466;52.286;21.124;2022-10-31T04:44:31;5.60;99.90
16700;DHT22;8466;52.286;21.124;2022-10-31T04:46:59;5.60;99.90
16700;DHT22;8466;52.286;21.124;2022-10-31T04:49:28;5.60;99.90
16700;DHT22;8466;52.286;21.124;2022-10-31T04:51:57;5.70;99.90
16700;DHT22;8466;52.286;21.124;2022-10-31T04:54:25;5.70;99.90
16700;DHT22;8466;52.286;21.124;2022-10-31T04:56:55;5.70;99.90
16700;DHT22;8466;52.286;21.124;2022-10-31T04:59:24;5.70;99.90
16700;DHT22;8466;52.286;21.124;2022-10-31T05:01:53;5.70;99.90
16700;DHT22;8466;52.286;21.124;2022-10-31T05:04:22;5.70;99.90
16700;DHT22;8466;52.286;21.124;2022-10-31T05:06:51;5.70;99.90
16700;DHT22;8466;52.286;21.124;2022-10-31T05:09:20;5.60;99.90
16700;DHT22;8466;52.286;21.124;2022-10-31T05:11:48;5.60;99.90
16700;DHT22;8466;52.286;21.124;2022-10-31T05:14:18;5.70;99.90
16700;DHT22;8466;52.286;21.124;2022-10-31T05:16:47;5.80;99.90
16700;DHT22;8466;52.286;21.124;2022-10-31T05:19:16;5.90;99.90
16700;DHT22;8466;52.286;21.124;2022-10-31T05:21:44;5.90;99.90
16700;DHT22;8466;52.286;21.124;2022-10-31T05:24:13;5.90;99.90
16700;DHT22;8466;52.286;21.124;2022-10-31T05:26:42;6.00;99.90
16700;DHT22;8466;52.286;21.124;2022-10-31T05:29:10;5.90;99.90
16700;DHT22;8466;52.286;21.124;2022-10-31T05:31:40;5.90;99.90
16700;DHT22;8466;52.286;21.124;2022-10-31T05:34:09;6.00;99.90
16700;DHT22;8466;52.286;21.124;2022-10-31T05:36:38;6.00;99.90
16700;DHT22;8466;52.286;21.124;2022-10-31T05:39:07;6.00;99.90
16700;DHT22;8466;52.286;21.124;2022-10-31T05:41:35;6.10;99.90
16700;DHT22;8466;52.286;21.124;2022-10-31T05:44:04;6.10;99.90
16700;DHT22;8466;52.286;21.124;2022-10-31T05:46:33;6.10;99.90
16700;DHT22;8466;52.286;21.124;2022-10-31T05:49:03;6.00;99.90
16700;DHT22;8466;52.286;21.124;2022-10-31T05:51:32;6.00;99.90
16700;DHT22;8466;52.286;21.124;2022-10-31T05:54:00;6.10;99.90
16700;DHT22;8466;52.286;21.124;2022-10-31T05:56:29;6.10;99.90
16700;DHT22;8466;52.286;21.124;2022-10-31T05:58:58;6.10;99.90
16700;DHT22;8466;52.286;21.124;2022-10-31T06:01:26;6.10;99.90
16700;DHT22;8466;52.286;21.124;2022-10-31T06:03:55;6.10;99.90
16700;DHT22;8466;52.286;21.124;2022-10-31T06:06:25;6.10;99.90
16700;DHT22;8466;52.286;21.124;2022-10-31T06:08:54;6.10;99.90
16700;DHT22;8466;52.286;21.124;2022-10-31T06:11:23;6.10;99.90
16700;DHT22;8466;52.286;21.124;2022-10-31T06:13:52;6.20;99.90
16700;DHT22;8466;52.286;21.124;2022-10-31T06:16:23;6.20;99.90
16700;DHT22;8466;52.286;21.124;2022-10-31T06:18:51;6.20;99.90
16700;DHT22;8466;52.286;21.124;2022-10-31T06:21:20;6.20;99.90
16700;DHT22;8466;52.286;21.124;2022-10-31T06:23:52;6.30;99.90
16700;DHT22;8466;52.286;21.124;2022-10-31T06:26:21;6.30;99.90
16700;DHT22;8466;52.286;21.124;2022-10-31T06:28:51;6.30;99.90
16700;DHT22;8466;52.286;21.124;2022-10-31T06:31:28;6.40;99.90
16700;DHT22;8466;52.286;21.124;2022-10-31T06:33:57;6.50;99.90
16700;DHT22;8466;52.286;21.124;2022-10-31T06:36:26;6.60;99.90
16700;DHT22;8466;52.286;21.124;2022-10-31T06:38:56;6.60;99.90
16700;DHT22;8466;52.286;21.124;2022-10-31T06:41:25;6.70;99.90
16700;DHT22;8466;52.286;21.124;2022-10-31T06:43:54;6.70;99.90
16700;DHT22;8466;52.286;21.124;2022-10-31T06:46:23;6.80;99.90
16700;DHT22;8466;52.286;21.124;2022-10-31T06:48:51;6.90;99.90
16700;DHT22;8466;52.286;21.124;2022-10-31T06:51:20;6.90;99.90
16700;DHT22;8466;52.286;21.124;2022-10-31T06:53:49;7.00;99.90
16700;DHT22;8466;52.286;21.124;2022-10-31T06:56:20;7.10;99.90
16700;DHT22;8466;52.286;21.124;2022-10-31T06:58:51;7.20;99.90
16700;DHT22;8466;52.286;21.124;2022-10-31T07:01:26;7.30;99.90
16700;DHT22;8466;52.286;21.124;2022-10-31T07:03:55;7.40;99.90
16700;DHT22;8466;52.286;21.124;2022-10-31T07:06:24;7.50;99.90
16700;DHT22;8466;52.286;21.124;2022-10-31T07:08:53;7.60;99.90
16700;DHT22;8466;52.286;21.124;2022-10-31T07:11:23;7.60;99.90
16700;DHT22;8466;52.286;21.124;2022-10-31T07:13:56;7.60;99.90
16700;DHT22;8466;52.286;21.124;2022-10-31T07:16:25;7.60;99.90
16700;DHT22;8466;52.286;21.124;2022-10-31T07:18:53;7.70;99.90
16700;DHT22;8466;52.286;21.124;2022-10-31T07:21:22;7.80;99.90
16700;DHT22;8466;52.286;21.124;2022-10-31T07:23:51;7.80;99.90
16700;DHT22;8466;52.286;21.124;2022-10-31T07:26:20;7.80;99.90
16700;DHT22;8466;52.286;21.124;2022-10-31T07:28:50;7.90;99.90
16700;DHT22;8466;52.286;21.124;2022-10-31T07:31:19;7.90;99.90
16700;DHT22;8466;52.286;21.124;2022-10-31T07:33:48;8.00;99.90
16700;DHT22;8466;52.286;21.124;2022-10-31T07:36:17;8.10;99.90
16700;DHT22;8466;52.286;21.124;2022-10-31T07:38:46;8.20;99.90
16700;DHT22;8466;52.286;21.124;2022-10-31T07:41:15;8.20;99.90
16700;DHT22;8466;52.286;21.124;2022-10-31T07:43:45;8.20;99.90
16700;DHT22;8466;52.286;21.124;2022-10-31T07:46:15;8.30;99.90
16700;DHT22;8466;52.286;21.124;2022-10-31T07:48:44;8.40;99.90
16700;DHT22;8466;52.286;21.124;2022-10-31T07:51:12;8.40;99.90
16700;DHT22;8466;52.286;21.124;2022-10-31T07:53:41;8.50;99.90
16700;DHT22;8466;52.286;21.124;2022-10-31T07:56:10;8.60;99.90
16700;DHT22;8466;52.286;21.124;2022-10-31T07:58:39;9.00;99.90
16700;DHT22;8466;52.286;21.124;2022-10-31T08:01:08;8.80;99.90
16700;DHT22;8466;52.286;21.124;2022-10-31T08:03:38;9.00;99.90
16700;DHT22;8466;52.286;21.124;2022-10-31T08:06:07;9.20;99.90
16700;DHT22;8466;52.286;21.124;2022-10-31T08:08:35;9.30;99.90
16700;DHT22;8466;52.286;21.124;2022-10-31T08:11:04;9.40;99.90
16700;DHT22;8466;52.286;21.124;2022-10-31T08:13:33;9.50;99.90
16700;DHT22;8466;52.286;21.124;2022-10-31T08:16:02;9.60;99.90
16700;DHT22;8466;52.286;21.124;2022-10-31T08:18:31;9.70;99.90
16700;DHT22;8466;52.286;21.124;2022-10-31T08:21:01;9.80;99.90
16700;DHT22;8466;52.286;21.124;2022-10-31T08:23:30;10.00;99.90
16700;DHT22;8466;52.286;21.124;2022-10-31T08:25:59;10.10;99.90
16700;DHT22;8466;52.286;21.124;2022-10-31T08:28:28;10.20;99.90
16700;DHT22;8466;52.286;21.124;2022-10-31T08:30:58;10.30;99.90
16700;DHT22;8466;52.286;21.124;2022-10-31T08:33:27;10.40;99.90
16700;DHT22;8466;52.286;21.124;2022-10-31T08:35:57;10.50;99.90
16700;DHT22;8466;52.286;21.124;2022-10-31T08:38:30;10.50;99.90
16700;DHT22;8466;52.286;21.124;2022-10-31T08:40:59;10.70;99.90
16700;DHT22;8466;52.286;21.124;2022-10-31T08:43:27;10.70;99.90
16700;DHT22;8466;52.286;21.124;2022-10-31T08:45:56;10.80;99.90
16700;DHT22;8466;52.286;21.124;2022-10-31T08:48:24;10.80;99.90
16700;DHT22;8466;52.286;21.124;2022-10-31T08:50:56;11.00;99.90
16700;DHT22;8466;52.286;21.124;2022-10-31T08:53:27;11.00;99.90
16700;DHT22;8466;52.286;21.124;2022-10-31T08:55:56;11.10;99.90
16700;DHT22;8466;52.286;21.124;2022-10-31T08:58:25;11.20;99.90
16700;DHT22;8466;52.286;21.124;2022-10-31T09:00:54;11.30;99.90
16700;DHT22;8466;52.286;21.124;2022-10-31T09:03:26;11.30;99.90
16700;DHT22;8466;52.286;21.124;2022-10-31T09:05:56;11.40;99.90
16700;DHT22;8466;52.286;21.124;2022-10-31T09:08:28;11.50;99.90
16700;DHT22;8466;52.286;21.124;2022-10-31T09:10:57;11.60;99.90
16700;DHT22;8466;52.286;21.124;2022-10-31T09:13:26;11.70;99.90
16700;DHT22;8466;52.286;21.124;2022-10-31T09:15:56;11.80;99.90
16700;DHT22;8466;52.286;21.124;2022-10-31T09:18:25;11.80;99.90
16700;DHT22;8466;52.286;21.124;2022-10-31T09:20:57;11.90;99.90
16700;DHT22;8466;52.286;21.124;2022-10-31T09:23:28;11.90;99.90
16700;DHT22;8466;52.286;21.124;2022-10-31T09:25:59;12.00;99.90
16700;DHT22;8466;52.286;21.124;2022-10-31T09:28:28;12.00;99.90
16700;DHT22;8466;52.286;21.124;2022-10-31T09:30:57;12.10;99.90
16700;DHT22;8466;52.286;21.124;2022-10-31T09:33:26;12.20;99.90
16700;DHT22;8466;52.286;21.124;2022-10-31T09:35:54;12.20;99.90
16700;DHT22;8466;52.286;21.124;2022-10-31T09:38:23;12.30;99.90
16700;DHT22;8466;52.286;21.124;2022-10-31T09:40:57;12.40;99.90
16700;DHT22;8466;52.286;21.124;2022-10-31T09:43:33;12.50;99.90
16700;DHT22;8466;52.286;21.124;2022-10-31T09:46:09;12.50;99.90
16700;DHT22;8466;52.286;21.124;2022-10-31T09:48:52;12.60;99.90
16700;DHT22;8466;52.286;21.124;2022-10-31T09:51:27;12.70;99.90
16700;DHT22;8466;52.286;21.124;2022-10-31T09:54:01;12.70;99.90
16700;DHT22;8466;52.286;21.124;2022-10-31T09:56:32;12.80;99.90
16700;DHT22;8466;52.286;21.124;2022-10-31T09:59:04;12.80;99.90
16700;DHT22;8466;52.286;21.124;2022-10-31T10:01:39;12.80;99.90
16700;DHT22;8466;52.286;21.124;2022-10-31T10:04:26;13.00;99.90
16700;DHT22;8466;52.286;21.124;2022-10-31T10:06:56;13.00;99.90
16700;DHT22;8466;52.286;21.124;2022-10-31T10:09:27;13.10;99.90
16700;DHT22;8466;52.286;21.124;2022-10-31T10:12:07;13.20;99.90
16700;DHT22;8466;52.286;21.124;2022-10-31T10:14:48;13.30;99.90
16700;DHT22;8466;52.286;21.124;2022-10-31T10:17:34;13.40;99.90
16700;DHT22;8466;52.286;21.124;2022-10-31T10:20:25;13.50;99.90
16700;DHT22;8466;52.286;21.124;2022-10-31T10:23:26;13.50;99.90
16700;DHT22;8466;52.286;21.124;2022-10-31T10:26:02;13.60;99.90
16700;DHT22;8466;52.286;21.124;2022-10-31T10:28:40;13.70;99.90
16700;DHT22;8466;52.286;21.124;2022-10-31T10:31:13;13.70;99.90
16700;DHT22;8466;52.286;21.124;2022-10-31T10:33:51;13.80;99.90
16700;DHT22;8466;52.286;21.124;2022-10-31T10:36:28;13.80;99.90
16700;DHT22;8466;52.286;21.124;2022-10-31T10:39:02;13.90;99.90
16700;DHT22;8466;52.286;21.124;2022-10-31T10:41:32;14.00;99.90
16700;DHT22;8466;52.286;21.124;2022-10-31T10:44:07;14.00;99.90
16700;DHT22;8466;52.286;21.124;2022-10-31T10:46:42;14.10;99.90
16700;DHT22;8466;52.286;21.124;2022-10-31T10:49:32;14.20;99.90
16700;DHT22;8466;52.286;21.124;2022-10-31T10:52:13;14.20;99.90
16700;DHT22;8466;52.286;21.124;2022-10-31T10:55:14;14.20;99.90
16700;DHT22;8466;52.286;21.124;2022-10-31T10:57:53;14.30;99.90
16700;DHT22;8466;52.286;21.124;2022-10-31T11:00:27;14.30;99.90
16700;DHT22;8466;52.286;21.124;2022-10-31T11:02:56;14.40;99.90
16700;DHT22;8466;52.286;21.124;2022-10-31T11:05:33;14.40;99.90
16700;DHT22;8466;52.286;21.124;2022-10-31T11:08:02;14.50;99.90
16700;DHT22;8466;52.286;21.124;2022-10-31T11:10:31;14.50;99.90
16700;DHT22;8466;52.286;21.124;2022-10-31T11:13:05;14.50;99.90
16700;DHT22;8466;52.286;21.124;2022-10-31T11:15:37;14.60;99.90
16700;DHT22;8466;52.286;21.124;2022-10-31T11:18:19;14.70;99.90
16700;DHT22;8466;52.286;21.124;2022-10-31T11:20:52;14.80;99.90
16700;DHT22;8466;52.286;21.124;2022-10-31T11:23:28;14.90;99.90
16700;DHT22;8466;52.286;21.124;2022-10-31T11:25:58;14.90;99.90
16700;DHT22;8466;52.286;21.124;2022-10-31T11:28:28;14.90;99.90
16700;DHT22;8466;52.286;21.124;2022-10-31T11:31:05;14.90;99.90
16700;DHT22;8466;52.286;21.124;2022-10-31T11:33:39;14.90;99.90
16700;DHT22;8466;52.286;21.124;2022-10-31T11:36:20;14.90;99.90
16700;DHT22;8466;52.286;21.124;2022-10-31T11:38:52;14.90;99.90
16700;DHT22;8466;52.286;21.124;2022-10-31T11:41:27;15.00;99.90
16700;DHT22;8466;52.286;21.124;2022-10-31T11:44:01;15.00;99.90
16700;DHT22;8466;52.286;21.124;2022-10-31T11:46:35;15.00;99.90
16700;DHT22;8466;52.286;21.124;2022-10-31T11:49:05;15.10;99.90
16700;DHT22;8466;52.286;21.124;2022-10-31T11:51:40;15.10;99.90
16700;DHT22;8466;52.286;21.124;2022-10-31T11:54:20;15.10;99.90
16700;DHT22;8466;52.286;21.124;2022-10-31T11:56:51;15.10;99.90
16700;DHT22;8466;52.286;21.124;2022-10-31T11:59:27;15.20;99.90
16700;DHT22;8466;52.286;21.124;2022-10-31T12:02:14;15.30;99.90
16700;DHT22;8466;52.286;21.124;2022-10-31T12:04:54;15.30;99.90
16700;DHT22;8466;52.286;21.124;2022-10-31T12:07:29;15.30;99.90
16700;DHT22;8466;52.286;21.124;2022-10-31T12:09:59;15.40;99.90
16700;DHT22;8466;52.286;21.124;2022-10-31T12:12:52;15.40;99.90
16700;DHT22;8466;52.286;21.124;2022-10-31T12:15:32;15.40;99.90
16700;DHT22;8466;52.286;21.124;2022-10-31T12:18:24;15.50;99.90
16700;DHT22;8466;52.286;21.124;2022-10-31T12:21:16;15.40;99.90
16700;DHT22;8466;52.286;21.124;2022-10-31T12:23:57;15.50;99.90
16700;DHT22;8466;52.286;21.124;2022-10-31T12:26:37;15.60;99.90
16700;DHT22;8466;52.286;21.124;2022-10-31T12:29:26;15.60;99.90
16700;DHT22;8466;52.286;21.124;2022-10-31T12:32:15;15.60;99.90
16700;DHT22;8466;52.286;21.124;2022-10-31T12:35:00;15.50;99.90
16700;DHT22;8466;52.286;21.124;2022-10-31T12:37:41;15.60;99.90
16700;DHT22;8466;52.286;21.124;2022-10-31T12:40:34;15.60;99.90
16700;DHT22;8466;52.286;21.124;2022-10-31T12:43:24;15.60;99.90
16700;DHT22;8466;52.286;21.124;2022-10-31T12:46:02;15.50;99.90
16700;DHT22;8466;52.286;21.124;2022-10-31T12:49:00;15.60;99.90
16700;DHT22;8466;52.286;21.124;2022-10-31T12:51:40;15.60;99.90
16700;DHT22;8466;52.286;21.124;2022-10-31T12:54:41;15.60;99.90
16700;DHT22;8466;52.286;21.124;2022-10-31T12:57:23;15.60;99.90
16700;DHT22;8466;52.286;21.124;2022-10-31T12:59:56;15.50;99.90
16700;DHT22;8466;52.286;21.124;2022-10-31T13:02:29;15.60;99.90
16700;DHT22;8466;52.286;21.124;2022-10-31T13:05:02;15.60;99.90
16700;DHT22;8466;52.286;21.124;2022-10-31T13:07:37;15.60;99.90
16700;DHT22;8466;52.286;21.124;2022-10-31T13:10:15;15.50;99.90
16700;DHT22;8466;52.286;21.124;2022-10-31T13:12:46;15.50;99.90
16700;DHT22;8466;52.286;21.124;2022-10-31T13:15:21;15.50;99.90
16700;DHT22;8466;52.286;21.124;2022-10-31T13:17:54;15.70;99.90
16700;DHT22;8466;52.286;21.124;2022-10-31T13:20:28;15.50;99.90
16700;DHT22;8466;52.286;21.124;2022-10-31T13:23:10;15.40;99.90
16700;DHT22;8466;52.286;21.124;2022-10-31T13:26:08;15.40;99.90
16700;DHT22;8466;52.286;21.124;2022-10-31T13:28:43;15.40;99.90
16700;DHT22;8466;52.286;21.124;2022-10-31T13:31:15;15.30;99.90
16700;DHT22;8466;52.286;21.124;2022-10-31T13:33:57;15.30;99.90
16700;DHT22;8466;52.286;21.124;2022-10-31T13:36:33;15.20;99.90
16700;DHT22;8466;52.286;21.124;2022-10-31T13:39:21;15.20;99.90
16700;DHT22;8466;52.286;21.124;2022-10-31T13:41:56;15.10;99.90
16700;DHT22;8466;52.286;21.124;2022-10-31T13:44:28;15.00;99.90
16700;DHT22;8466;52.286;21.124;2022-10-31T13:47:24;15.00;99.90
16700;DHT22;8466;52.286;21.124;2022-10-31T13:50:14;15.00;99.90
16700;DHT22;8466;52.286;21.124;2022-10-31T13:52:48;15.00;99.90
16700;DHT22;8466;52.286;21.124;2022-10-31T13:55:39;14.90;99.90
16700;DHT22;8466;52.286;21.124;2022-10-31T13:58:25;14.90;99.90
16700;DHT22;8466;52.286;21.124;2022-10-31T14:01:15;14.80;99.90
16700;DHT22;8466;52.286;21.124;2022-10-31T14:03:55;14.80;99.90
16700;DHT22;8466;52.286;21.124;2022-10-31T14:06:51;14.70;99.90
16700;DHT22;8466;52.286;21.124;2022-10-31T14:09:30;14.60;99.90
16700;DHT22;8466;52.286;21.124;2022-10-31T14:12:06;14.50;99.90
16700;DHT22;8466;52.286;21.124;2022-10-31T14:14:45;14.40;99.90
16700;DHT22;8466;52.286;21.124;2022-10-31T14:17:20;14.40;99.90
16700;DHT22;8466;52.286;21.124;2022-10-31T14:26:31;14.20;99.90
16700;DHT22;8466;52.286;21.124;2022-10-31T14:29:26;14.10;99.90
16700;DHT22;8466;52.286;21.124;2022-10-31T14:32:05;14.10;99.90
16700;DHT22;8466;52.286;21.124;2022-10-31T14:34:40;14.00;99.90
16700;DHT22;8466;52.286;21.124;2022-10-31T14:37:38;13.90;99.90
16700;DHT22;8466;52.286;21.124;2022-10-31T14:40:27;13.90;99.90
16700;DHT22;8466;52.286;21.124;2022-10-31T14:46:00;13.70;99.90
16700;DHT22;8466;52.286;21.124;2022-10-31T14:48:47;13.60;99.90
16700;DHT22;8466;52.286;21.124;2022-10-31T14:51:22;13.50;99.90
16700;DHT22;8466;52.286;21.124;2022-10-31T14:53:52;13.40;99.90
16700;DHT22;8466;52.286;21.124;2022-10-31T14:59:37;13.30;99.90
16700;DHT22;8466;52.286;21.124;2022-10-31T15:02:13;13.20;99.90
16700;DHT22;8466;52.286;21.124;2022-10-31T15:04:44;13.10;99.90
16700;DHT22;8466;52.286;21.124;2022-10-31T15:07:16;13.00;99.90
16700;DHT22;8466;52.286;21.124;2022-10-31T15:09:57;12.90;99.90
16700;DHT22;8466;52.286;21.124;2022-10-31T15:12:28;12.80;99.90
16700;DHT22;8466;52.286;21.124;2022-10-31T15:14:57;12.70;99.90
16700;DHT22;8466;52.286;21.124;2022-10-31T15:17:27;12.60;99.90
16700;DHT22;8466;52.286;21.124;2022-10-31T15:19:57;12.60;99.90
16700;DHT22;8466;52.286;21.124;2022-10-31T15:22:31;12.50;99.90
16700;DHT22;8466;52.286;21.124;2022-10-31T15:25:00;12.40;99.90
16700;DHT22;8466;52.286;21.124;2022-10-31T15:27:29;12.30;99.90
16700;DHT22;8466;52.286;21.124;2022-10-31T15:30:00;12.30;99.90
16700;DHT22;8466;52.286;21.124;2022-10-31T15:32:30;12.20;99.90
16700;DHT22;8466;52.286;21.124;2022-10-31T15:34:59;12.10;99.90
16700;DHT22;8466;52.286;21.124;2022-10-31T15:37:29;12.00;99.90
16700;DHT22;8466;52.286;21.124;2022-10-31T15:40:11;11.90;99.90
16700;DHT22;8466;52.286;21.124;2022-10-31T15:42:48;11.90;99.90
16700;DHT22;8466;52.286;21.124;2022-10-31T15:45:23;11.80;99.90
16700;DHT22;8466;52.286;21.124;2022-10-31T15:47:57;11.70;99.90
16700;DHT22;8466;52.286;21.124;2022-10-31T15:50:31;11.60;99.90
16700;DHT22;8466;52.286;21.124;2022-10-31T15:53:00;11.50;99.90
16700;DHT22;8466;52.286;21.124;2022-10-31T15:55:35;11.40;99.90
16700;DHT22;8466;52.286;21.124;2022-10-31T15:58:11;11.40;99.90
16700;DHT22;8466;52.286;21.124;2022-10-31T16:00:41;11.30;99.90
16700;DHT22;8466;52.286;21.124;2022-10-31T16:03:26;11.30;99.90
16700;DHT22;8466;52.286;21.124;2022-10-31T16:05:56;11.20;99.90
16700;DHT22;8466;52.286;21.124;2022-10-31T16:08:32;11.20;99.90
16700;DHT22;8466;52.286;21.124;2022-10-31T16:11:16;11.00;99.90
16700;DHT22;8466;52.286;21.124;2022-10-31T16:13:54;11.00;99.90
16700;DHT22;8466;52.286;21.124;2022-10-31T16:16:25;10.90;99.90
16700;DHT22;8466;52.286;21.124;2022-10-31T16:19:05;10.80;99.90
16700;DHT22;8466;52.286;21.124;2022-10-31T16:21:36;10.70;99.90
16700;DHT22;8466;52.286;21.124;2022-10-31T16:24:14;10.70;99.90
16700;DHT22;8466;52.286;21.124;2022-10-31T16:26:48;10.60;99.90
16700;DHT22;8466;52.286;21.124;2022-10-31T16:29:28;10.60;99.90
16700;DHT22;8466;52.286;21.124;2022-10-31T16:31:57;10.70;99.90
16700;DHT22;8466;52.286;21.124;2022-10-31T16:34:27;10.50;99.90